Time;durP1;ratioP1;P1;durP2;ratioP2;P2;SDS_P1;SDS_P2;PMS_P1;PMS_P2;Temp;Humidity;BMP_temperature;BMP_pressure;BME280_temperature;BME280_humidity;BME280_pressure;Samples;Min_cycle;Max_cycle;Signal;HPM_P1;HPM_P2
2023/04/18 00:01:23;;;;;;;6.37;5.27;;;7.80;1.00;;;;;;5069161;28;20202;-58
2023/04/18 00:03:50;;;;;;;11.43;5.90;;;7.70;1.00;;;;;;5087547;28;20234;-57
2023/04/18 00:06:20;;;;;;;6.43;5.80;;;7.70;1.00;;;;;;5078608;28;20556;-59
2023/04/18 00:08:48;;;;;;;7.07;5.97;;;7.60;1.00;;;;;;5079655;28;20588;-58
2023/04/18 00:11:15;;;;;;;7.83;5.90;;;7.60;1.00;;;;;;5078161;28;20198;-59
2023/04/18 00:13:42;;;;;;;7.93;5.33;;;7.60;1.00;;;;;;5087080;28;20190;-57
2023/04/18 00:16:09;;;;;;;5.67;5.00;;;7.50;1.00;;;;;;5084936;28;20274;-59
2023/04/18 00:18:36;;;;;;;6.77;5.80;;;7.50;1.00;;;;;;5089805;28;20190;-57
2023/04/18 00:21:03;;;;;;;6.37;5.50;;;7.50;1.00;;;;;;5088407;28;20533;-58
2023/04/18 00:23:32;;;;;;;6.73;5.67;;;7.40;1.00;;;;;;5082581;28;20669;-56
2023/04/18 00:25:59;;;;;;;7.23;6.03;;;7.40;1.00;;;;;;5051978;28;20194;-57
2023/04/18 00:28:26;;;;;;;7.37;5.70;;;7.40;1.00;;;;;;5065302;28;20228;-57
2023/04/18 00:30:54;;;;;;;7.80;6.03;;;7.40;1.00;;;;;;5080737;28;20225;-56
2023/04/18 00:33:21;;;;;;;6.43;5.60;;;7.40;1.00;;;;;;5064634;28;20683;-58
2023/04/18 00:35:51;;;;;;;7.17;5.80;;;7.40;1.00;;;;;;5066864;28;20201;-58
2023/04/18 00:38:17;;;;;;;7.50;5.60;;;7.40;1.00;;;;;;5086426;28;20289;-57
2023/04/18 00:40:47;;;;;;;5.47;4.97;;;7.40;1.00;;;;;;5068033;28;20191;-58
2023/04/18 00:43:16;;;;;;;8.10;5.37;;;7.40;1.00;;;;;;5083132;28;20194;-57
2023/04/18 00:45:43;;;;;;;8.73;5.73;;;7.40;1.00;;;;;;5065297;28;20190;-58
2023/04/18 00:48:10;;;;;;;5.83;5.20;;;7.30;1.00;;;;;;5084785;28;20273;-58
2023/04/18 00:50:39;;;;;;;6.47;5.50;;;7.40;1.00;;;;;;5051390;28;20202;-58
2023/04/18 00:53:09;;;;;;;6.60;5.27;;;7.40;1.00;;;;;;5082548;28;20376;-58
2023/04/18 00:55:38;;;;;;;6.23;5.00;;;7.40;1.00;;;;;;5072219;28;20686;-59
2023/04/18 00:58:05;;;;;;;6.10;5.50;;;7.50;1.00;;;;;;5048355;28;20210;-58
2023/04/18 01:00:32;;;;;;;6.00;5.17;;;7.50;1.00;;;;;;5065120;28;20214;-60
2023/04/18 01:02:59;;;;;;;8.23;5.50;;;7.60;1.00;;;;;;5061768;28;20250;-59
2023/04/18 01:05:27;;;;;;;6.73;5.93;;;7.60;1.00;;;;;;5080883;28;20691;-59
2023/04/18 01:07:59;;;;;;;6.77;5.50;;;7.60;1.00;;;;;;5061506;28;20198;-60
2023/04/18 01:10:27;;;;;;;7.57;5.97;;;7.70;1.00;;;;;;5077030;28;20364;-57
2023/04/18 01:13:10;;;;;;;6.03;5.37;;;7.70;1.00;;;;;;5081046;28;20297;-58
2023/04/18 01:15:42;;;;;;;5.83;5.23;;;7.70;1.00;;;;;;5081364;28;20236;-59
2023/04/18 01:18:12;;;;;;;6.27;5.63;;;7.70;1.00;;;;;;5082889;28;20527;-60
2023/04/18 01:20:44;;;;;;;6.33;5.30;;;7.70;1.00;;;;;;5080636;28;20289;-58
2023/04/18 01:23:12;;;;;;;7.67;5.73;;;7.70;1.00;;;;;;5048558;28;20568;-59
2023/04/18 01:25:39;;;;;;;6.23;5.40;;;7.70;1.00;;;;;;5066435;28;20217;-58
2023/04/18 01:28:06;;;;;;;6.23;5.20;;;7.70;1.00;;;;;;5062519;28;20722;-57
2023/04/18 01:30:33;;;;;;;6.83;5.30;;;7.70;1.00;;;;;;5078248;28;20259;-58
2023/04/18 01:33:02;;;;;;;5.77;5.17;;;7.60;1.00;;;;;;5084559;28;20240;-58
2023/04/18 01:35:29;;;;;;;6.53;5.83;;;7.60;1.00;;;;;;5084153;28;20206;-58
2023/04/18 01:37:57;;;;;;;5.63;5.00;;;7.50;1.00;;;;;;5074417;28;20191;-58
2023/04/18 01:40:26;;;;;;;6.20;5.33;;;7.50;1.00;;;;;;5079032;28;20195;-58
2023/04/18 01:42:53;;;;;;;6.60;5.47;;;7.40;1.00;;;;;;5072227;28;20736;-59
2023/04/18 01:45:21;;;;;;;5.93;5.33;;;7.40;1.00;;;;;;5075929;28;20205;-60
2023/04/18 01:47:48;;;;;;;7.50;5.47;;;7.40;1.00;;;;;;5062089;28;20274;-58
2023/04/18 01:50:15;;;;;;;6.10;5.50;;;7.40;1.00;;;;;;5079873;28;20191;-58
2023/04/18 01:52:42;;;;;;;6.77;5.47;;;7.40;1.00;;;;;;5079076;28;20689;-59
2023/04/18 01:55:09;;;;;;;6.37;5.23;;;7.40;1.00;;;;;;5051717;28;20297;-58
2023/04/18 01:57:37;;;;;;;5.93;5.33;;;7.40;1.00;;;;;;5086988;28;20571;-57
2023/04/18 02:00:05;;;;;;;7.20;6.07;;;7.40;1.00;;;;;;5069416;28;20198;-59
2023/04/18 02:02:40;;;;;;;7.70;6.13;;;7.40;1.00;;;;;;5089615;28;20256;-59
2023/04/18 02:05:07;;;;;;;7.13;6.03;;;7.40;1.00;;;;;;5087062;28;20224;-59
2023/04/18 02:07:37;;;;;;;7.13;6.43;;;7.40;1.00;;;;;;5079867;28;20187;-58
2023/04/18 02:10:05;;;;;;;6.30;5.33;;;7.40;1.00;;;;;;5059495;28;20398;-59
2023/04/18 02:12:33;;;;;;;7.03;6.07;;;7.40;1.00;;;;;;5063528;28;20324;-61
2023/04/18 02:15:00;;;;;;;7.20;6.43;;;7.40;1.00;;;;;;5050640;28;20240;-60
2023/04/18 02:17:27;;;;;;;8.07;7.03;;;7.40;1.00;;;;;;5072430;28;20191;-58
2023/04/18 02:19:54;;;;;;;6.77;5.60;;;7.40;1.00;;;;;;5064219;28;20273;-62
2023/04/18 02:22:21;;;;;;;7.00;6.30;;;7.40;1.00;;;;;;5085200;28;20673;-59
2023/04/18 02:24:48;;;;;;;7.57;6.43;;;7.30;1.00;;;;;;5080904;28;20225;-57
2023/04/18 02:27:17;;;;;;;9.13;6.93;;;7.30;1.00;;;;;;5069840;28;20557;-59
2023/04/18 02:29:43;;;;;;;7.27;6.40;;;7.30;1.00;;;;;;5087057;28;20226;-58
2023/04/18 02:32:10;;;;;;;9.53;6.80;;;7.30;1.00;;;;;;5085346;28;20229;-58
2023/04/18 02:34:38;;;;;;;6.87;6.20;;;7.30;1.00;;;;;;5083570;28;20264;-58
2023/04/18 02:37:05;;;;;;;8.17;6.90;;;7.40;1.00;;;;;;5079911;28;20190;-58
2023/04/18 02:39:32;;;;;;;9.53;6.93;;;7.40;1.00;;;;;;5066662;28;20220;-60
2023/04/18 02:42:00;;;;;;;9.57;7.57;;;7.40;1.00;;;;;;5083454;28;20281;-58
2023/04/18 02:44:27;;;;;;;9.63;7.23;;;7.40;1.00;;;;;;5066638;28;20194;-57
2023/04/18 02:46:54;;;;;;;8.67;7.73;;;7.40;1.00;;;;;;5051795;28;20202;-63
2023/04/18 02:49:21;;;;;;;7.93;7.13;;;7.40;1.00;;;;;;5070804;28;20206;-63
2023/04/18 02:51:48;;;;;;;9.53;7.80;;;7.40;1.00;;;;;;5085463;28;20265;-64
2023/04/18 02:54:15;;;;;;;10.47;8.50;;;7.30;1.00;;;;;;5067426;28;20279;-64
2023/04/18 02:56:55;;;;;;;8.93;7.90;;;7.40;1.00;;;;;;5068142;28;20247;-64
2023/04/18 02:59:45;;;;;;;9.90;8.10;;;7.40;1.00;;;;;;5077248;28;20199;-63
2023/04/18 03:02:12;;;;;;;10.33;7.80;;;7.40;1.00;;;;;;5087855;28;20240;-64
2023/04/18 03:04:46;;;;;;;8.73;7.63;;;7.30;1.00;;;;;;5069313;28;20666;-64
2023/04/18 03:07:14;;;;;;;8.33;7.37;;;7.30;1.00;;;;;;5066197;28;20198;-64
2023/04/18 03:09:41;;;;;;;8.10;7.23;;;7.30;1.00;;;;;;5067834;28;20194;-64
2023/04/18 03:12:16;;;;;;;8.80;7.90;;;7.30;1.00;;;;;;5079708;28;20545;-64
2023/04/18 03:14:43;;;;;;;10.67;7.63;;;7.30;1.00;;;;;;5066346;28;20203;-63
2023/04/18 03:17:12;;;;;;;9.23;7.70;;;7.30;1.00;;;;;;5067619;28;20473;-63
2023/04/18 03:19:44;;;;;;;8.53;7.30;;;7.30;1.00;;;;;;5081965;28;20317;-63
2023/04/18 03:22:14;;;;;;;7.97;7.17;;;7.30;1.00;;;;;;5066398;28;20206;-63
2023/04/18 03:24:54;;;;;;;9.47;7.90;;;7.30;1.00;;;;;;5062372;28;20286;-63
2023/04/18 03:27:29;;;;;;;9.43;8.03;;;7.30;1.00;;;;;;5072440;28;20657;-63
2023/04/18 03:29:56;;;;;;;7.73;6.93;;;7.30;1.00;;;;;;5083569;28;20193;-63
2023/04/18 03:32:23;;;;;;;9.00;7.77;;;7.30;1.00;;;;;;5078316;28;20222;-62
2023/04/18 03:34:50;;;;;;;8.23;7.43;;;7.30;1.00;;;;;;5078595;28;20441;-64
2023/04/18 03:37:17;;;;;;;9.40;8.40;;;7.30;1.00;;;;;;5062306;28;20189;-64
2023/04/18 03:39:49;;;;;;;8.90;7.87;;;7.30;1.00;;;;;;5068851;28;20221;-63
2023/04/18 03:42:16;;;;;;;10.27;8.13;;;7.30;1.00;;;;;;5081550;28;20187;-63
2023/04/18 03:44:43;;;;;;;10.17;7.70;;;7.30;1.00;;;;;;5049092;28;20561;-64
2023/04/18 03:47:13;;;;;;;8.57;7.40;;;7.30;1.00;;;;;;5066837;28;20670;-64
2023/04/18 03:49:43;;;;;;;8.33;7.30;;;7.30;1.00;;;;;;5083977;28;20200;-64
2023/04/18 03:52:10;;;;;;;9.37;7.60;;;7.30;1.00;;;;;;5062972;28;20197;-64
2023/04/18 03:54:37;;;;;;;9.63;7.67;;;7.30;1.00;;;;;;5068577;28;20194;-61
2023/04/18 03:57:04;;;;;;;10.63;8.33;;;7.30;1.00;;;;;;5083202;28;20190;-64
2023/04/18 03:59:34;;;;;;;8.70;7.80;;;7.30;1.00;;;;;;5077866;28;20190;-63
2023/04/18 04:02:01;;;;;;;9.70;8.40;;;7.40;1.00;;;;;;5079878;28;21948;-63
2023/04/18 04:04:28;;;;;;;9.77;8.03;;;7.40;1.00;;;;;;5072776;28;20508;-63
2023/04/18 04:06:58;;;;;;;11.13;7.70;;;7.40;1.00;;;;;;5059782;28;20207;-63
2023/04/18 04:09:25;;;;;;;10.50;7.97;;;7.40;1.00;;;;;;5066960;28;20306;-62
2023/04/18 04:11:52;;;;;;;11.23;8.43;;;7.40;1.00;;;;;;5059213;28;20566;-63
2023/04/18 04:14:21;;;;;;;10.70;7.83;;;7.40;1.00;;;;;;5049047;28;20211;-64
2023/04/18 04:16:48;;;;;;;9.33;8.33;;;7.40;1.00;;;;;;5069777;28;20187;-64
2023/04/18 04:19:16;;;;;;;9.23;8.23;;;7.40;1.00;;;;;;5074983;28;20202;-64
2023/04/18 04:21:57;;;;;;;9.90;8.27;;;7.40;1.00;;;;;;5061663;28;20190;-64
2023/04/18 04:24:25;;;;;;;10.13;8.63;;;7.50;1.00;;;;;;5063381;28;20671;-64
2023/04/18 04:26:52;;;;;;;9.80;8.13;;;7.50;1.00;;;;;;5060648;28;20278;-65
2023/04/18 04:29:23;;;;;;;11.67;8.50;;;7.40;1.00;;;;;;5062481;28;20571;-64
2023/04/18 04:31:51;;;;;;;11.63;8.80;;;7.40;1.00;;;;;;5060708;28;20195;-65
2023/04/18 04:34:33;;;;;;;9.97;8.57;;;7.50;1.00;;;;;;5053039;28;20201;-64
2023/04/18 04:37:02;;;;;;;11.00;8.23;;;7.50;1.00;;;;;;5042736;28;20260;-62
2023/04/18 04:39:33;;;;;;;9.83;8.30;;;7.50;1.00;;;;;;5062339;28;20257;-63
2023/04/18 04:42:27;;;;;;;9.97;8.27;;;7.50;1.00;;;;;;5067673;28;20214;-63
2023/04/18 04:45:07;;;;;;;11.07;9.07;;;7.50;1.00;;;;;;5061011;28;20638;-63
2023/04/18 04:47:35;;;;;;;10.67;8.50;;;7.50;1.00;;;;;;5068519;28;20191;-63
2023/04/18 04:50:05;;;;;;;12.27;8.30;;;7.50;1.00;;;;;;5056772;28;20294;-61
2023/04/18 04:52:32;;;;;;;9.53;8.53;;;7.50;1.00;;;;;;5058012;28;20210;-62
2023/04/18 04:54:59;;;;;;;11.20;8.77;;;7.50;1.00;;;;;;5059935;28;20202;-65
2023/04/18 04:57:26;;;;;;;11.00;8.67;;;7.60;1.00;;;;;;5060567;28;20592;-64
2023/04/18 04:59:53;;;;;;;11.57;9.50;;;7.60;1.00;;;;;;5055874;28;20202;-63
2023/04/18 05:02:22;;;;;;;9.80;8.80;;;7.60;1.00;;;;;;5061418;28;20215;-63
2023/04/18 05:04:49;;;;;;;10.90;9.47;;;7.60;1.00;;;;;;5087593;28;20175;-64
2023/04/18 05:07:16;;;;;;;12.60;9.70;;;7.60;1.00;;;;;;5080378;28;20602;-63
2023/04/18 05:09:43;;;;;;;13.73;10.67;;;7.60;1.00;;;;;;5084299;28;20209;-64
2023/04/18 05:12:10;;;;;;;13.13;9.70;;;7.60;1.00;;;;;;5063818;28;20273;-63
2023/04/18 05:14:37;;;;;;;11.77;10.23;;;7.70;1.00;;;;;;5067891;28;20213;-63
2023/04/18 05:17:04;;;;;;;11.40;9.43;;;7.70;1.00;;;;;;5065603;28;20672;-65
2023/04/18 05:19:31;;;;;;;11.47;9.80;;;7.70;1.00;;;;;;5066145;28;20521;-63
2023/04/18 05:21:58;;;;;;;11.50;10.07;;;7.60;1.00;;;;;;5061596;28;20226;-64
2023/04/18 05:24:25;;;;;;;12.80;9.97;;;7.70;1.00;;;;;;5067763;28;20301;-67
2023/04/18 05:26:52;;;;;;;12.40;10.50;;;7.60;1.00;;;;;;5086007;28;20598;-63
2023/04/18 05:29:19;;;;;;;14.47;11.03;;;7.70;1.00;;;;;;5086196;28;20289;-62
2023/04/18 05:31:46;;;;;;;14.33;11.50;;;7.60;1.00;;;;;;5083709;28;20696;-63
2023/04/18 05:34:13;;;;;;;12.23;10.03;;;7.60;1.00;;;;;;5086957;28;20206;-63
2023/04/18 05:36:40;;;;;;;12.87;10.77;;;7.60;1.00;;;;;;5079394;28;20195;-59
2023/04/18 05:39:07;;;;;;;13.93;12.07;;;7.60;1.00;;;;;;5049335;28;20569;-58
2023/04/18 05:41:34;;;;;;;14.87;11.57;;;7.60;1.00;;;;;;5063194;28;20220;-59
2023/04/18 05:44:02;;;;;;;15.67;12.37;;;7.50;1.00;;;;;;5068911;28;20197;-61
2023/04/18 05:46:32;;;;;;;14.53;12.10;;;7.60;1.00;;;;;;5081598;28;21430;-63
2023/04/18 05:48:59;;;;;;;15.43;12.73;;;7.60;1.00;;;;;;5082468;28;20658;-62
2023/04/18 05:51:27;;;;;;;16.70;12.67;;;7.60;1.00;;;;;;5079472;28;20289;-60
2023/04/18 05:53:54;;;;;;;18.40;13.87;;;7.60;1.00;;;;;;5085236;28;20221;-58
2023/04/18 05:56:21;;;;;;;18.87;13.67;;;7.70;1.00;;;;;;5083369;28;20202;-58
2023/04/18 05:58:50;;;;;;;17.77;13.03;;;7.70;1.00;;;;;;5086004;28;20205;-59
2023/04/18 06:01:20;;;;;;;16.33;12.37;;;7.60;1.00;;;;;;5080563;28;20198;-58
2023/04/18 06:03:47;;;;;;;17.97;13.83;;;7.60;1.00;;;;;;5086408;28;20244;-58
2023/04/18 06:06:14;;;;;;;18.57;13.50;;;7.70;1.00;;;;;;5084601;28;20677;-58
2023/04/18 06:08:41;;;;;;;21.17;14.40;;;7.70;1.00;;;;;;5078206;28;20261;-58
2023/04/18 06:11:08;;;;;;;19.50;13.63;;;7.70;1.00;;;;;;5078936;28;20278;-58
2023/04/18 06:13:36;;;;;;;17.37;13.47;;;7.70;1.00;;;;;;5078673;28;20240;-58
2023/04/18 06:16:03;;;;;;;20.40;13.93;;;7.80;1.00;;;;;;5084935;28;20207;-57
2023/04/18 06:18:30;;;;;;;22.10;14.70;;;7.70;1.00;;;;;;5064023;28;20194;-57
2023/04/18 06:20:57;;;;;;;18.97;13.83;;;7.70;1.00;;;;;;5086171;28;20649;-58
2023/04/18 06:23:24;;;;;;;20.87;14.23;;;7.70;1.00;;;;;;5077402;28;20290;-59
2023/04/18 06:25:51;;;;;;;18.77;13.90;;;7.70;1.00;;;;;;5087021;28;20226;-59
2023/04/18 06:28:18;;;;;;;20.20;13.30;;;7.70;1.00;;;;;;5085552;28;20273;-58
2023/04/18 06:30:45;;;;;;;18.03;13.30;;;7.70;1.00;;;;;;5078202;28;20211;-59
2023/04/18 06:33:12;;;;;;;17.63;13.33;;;7.70;1.00;;;;;;5081481;28;20316;-60
2023/04/18 06:35:40;;;;;;;20.87;13.47;;;7.70;1.00;;;;;;5085170;28;20618;-57
2023/04/18 06:38:07;;;;;;;15.47;12.37;;;7.70;1.00;;;;;;5082284;28;20228;-58
2023/04/18 06:40:34;;;;;;;17.70;13.77;;;7.80;1.00;;;;;;5086299;28;20198;-60
2023/04/18 06:43:01;;;;;;;14.03;10.40;;;7.90;1.00;;;;;;5082627;28;20197;-58
2023/04/18 06:45:31;;;;;;;18.33;12.83;;;7.80;1.00;;;;;;5087712;28;20327;-57
2023/04/18 06:47:58;;;;;;;16.87;12.23;;;7.80;1.00;;;;;;5085761;28;20268;-58
2023/04/18 06:50:26;;;;;;;13.90;10.93;;;7.90;1.00;;;;;;5083240;28;20202;-58
2023/04/18 06:52:52;;;;;;;18.10;12.43;;;7.90;1.00;;;;;;5065793;28;20256;-59
2023/04/18 06:55:20;;;;;;;17.53;11.80;;;7.90;1.00;;;;;;5086783;28;20210;-59
2023/04/18 06:57:47;;;;;;;17.07;12.47;;;7.90;1.00;;;;;;5082990;28;20178;-57
2023/04/18 07:00:14;;;;;;;14.40;11.60;;;8.00;1.00;;;;;;5081896;28;20530;-58
2023/04/18 07:02:42;;;;;;;16.30;10.63;;;8.00;1.00;;;;;;5086875;28;20230;-58
2023/04/18 07:05:09;;;;;;;15.83;11.60;;;8.00;1.00;;;;;;5089663;28;20186;-59
2023/04/18 07:07:36;;;;;;;16.47;12.20;;;8.00;1.00;;;;;;5088508;28;20286;-57
2023/04/18 07:10:04;;;;;;;14.37;11.23;;;8.10;1.00;;;;;;5087659;28;20194;-57
2023/04/18 07:12:31;;;;;;;16.50;11.60;;;8.20;1.00;;;;;;5067074;28;20286;-60
2023/04/18 07:14:58;;;;;;;16.03;11.37;;;8.30;1.00;;;;;;5066069;28;20237;-61
2023/04/18 07:17:25;;;;;;;14.57;10.83;;;8.20;1.00;;;;;;5082446;28;20217;-58
2023/04/18 07:19:52;;;;;;;14.73;11.60;;;8.10;1.00;;;;;;5087330;28;20591;-58
2023/04/18 07:22:19;;;;;;;14.87;11.77;;;8.20;1.00;;;;;;5069534;28;20225;-58
2023/04/18 07:24:46;;;;;;;14.60;12.27;;;8.40;1.00;;;;;;5070767;28;20668;-58
2023/04/18 07:27:14;;;;;;;16.33;12.33;;;8.40;1.00;;;;;;5083586;28;20203;-58
2023/04/18 07:29:41;;;;;;;17.63;12.37;;;8.30;1.00;;;;;;5069162;28;20244;-59
2023/04/18 07:32:08;;;;;;;16.70;11.10;;;8.40;1.00;;;;;;5066375;28;20295;-58
2023/04/18 07:34:36;;;;;;;17.17;12.73;;;8.30;1.00;;;;;;5069589;28;20267;-58
2023/04/18 07:37:03;;;;;;;17.43;12.33;;;8.30;1.00;;;;;;5069915;28;20688;-61
2023/04/18 07:39:34;;;;;;;15.07;11.70;;;8.30;1.00;;;;;;5087864;28;20219;-58
2023/04/18 07:42:05;;;;;;;16.40;11.87;;;8.40;1.00;;;;;;5065393;28;20198;-57
2023/04/18 07:44:34;;;;;;;18.83;11.87;;;8.40;1.00;;;;;;5068467;28;20187;-58
2023/04/18 07:47:01;;;;;;;16.73;11.70;;;8.50;1.00;;;;;;5085360;28;20576;-57
2023/04/18 07:49:29;;;;;;;14.93;11.77;;;8.60;1.00;;;;;;5085833;28;20281;-58
2023/04/18 07:51:56;;;;;;;17.20;13.17;;;8.70;1.00;;;;;;5084569;28;20191;-59
2023/04/18 07:54:23;;;;;;;16.23;11.83;;;8.90;1.00;;;;;;5066562;28;20214;-60
2023/04/18 07:56:50;;;;;;;14.90;11.10;;;9.20;1.00;;;;;;5050091;28;20617;-58
2023/04/18 07:59:17;;;;;;;15.13;11.90;;;9.20;1.00;;;;;;5067405;28;20178;-58
2023/04/18 08:01:44;;;;;;;14.33;10.83;;;9.40;1.00;;;;;;5077878;28;20796;-58
2023/04/18 08:04:11;;;;;;;16.60;11.50;;;9.30;1.00;;;;;;5085125;28;20275;-59
2023/04/18 08:06:38;;;;;;;15.60;11.97;;;9.20;1.00;;;;;;5081832;28;20278;-57
2023/04/18 08:09:05;;;;;;;14.30;11.50;;;9.20;1.00;;;;;;5085562;28;20280;-59
2023/04/18 08:11:33;;;;;;;14.87;11.90;;;9.40;1.00;;;;;;5085175;28;20407;-59
2023/04/18 08:14:00;;;;;;;17.90;12.00;;;9.20;1.00;;;;;;5081441;28;20673;-59
2023/04/18 08:16:27;;;;;;;17.00;11.87;;;9.00;1.00;;;;;;5085309;28;20186;-56
2023/04/18 08:18:54;;;;;;;18.17;13.50;;;9.00;1.00;;;;;;5085875;28;20277;-57
2023/04/18 08:21:21;;;;;;;15.53;11.27;;;9.10;1.00;;;;;;5086455;28;20430;-56
2023/04/18 08:23:48;;;;;;;15.17;12.23;;;9.10;1.00;;;;;;5062498;28;20519;-59
2023/04/18 08:26:15;;;;;;;16.20;11.90;;;9.30;1.00;;;;;;5083287;28;20239;-59
2023/04/18 08:28:43;;;;;;;15.57;11.90;;;9.40;1.00;;;;;;5085377;28;20277;-59
2023/04/18 08:31:13;;;;;;;15.13;11.53;;;9.30;1.00;;;;;;5066699;28;20213;-58
2023/04/18 08:33:41;;;;;;;15.80;12.70;;;9.50;1.00;;;;;;5087292;28;20218;-59
2023/04/18 08:36:08;;;;;;;16.67;11.93;;;9.90;1.00;;;;;;5087320;28;20189;-59
2023/04/18 08:38:35;;;;;;;15.23;11.43;;;10.10;1.00;;;;;;5086575;28;20226;-57
2023/04/18 08:41:02;;;;;;;15.20;12.23;;;10.10;1.00;;;;;;5088534;28;20733;-58
2023/04/18 08:43:30;;;;;;;16.43;12.13;;;10.40;1.00;;;;;;5070740;28;20273;-58
2023/04/18 08:45:58;;;;;;;15.57;11.97;;;10.50;1.00;;;;;;5082869;28;20187;-59
2023/04/18 08:48:29;;;;;;;17.17;12.20;;;10.40;1.00;;;;;;5085558;28;20243;-59
2023/04/18 08:50:57;;;;;;;17.03;11.97;;;10.50;1.00;;;;;;5085202;28;20337;-58
2023/04/18 08:53:25;;;;;;;16.17;12.17;;;10.80;1.00;;;;;;5081007;28;20214;-59
2023/04/18 08:55:56;;;;;;;18.40;12.00;;;10.40;1.00;;;;;;5079501;28;20252;-59
2023/04/18 08:58:25;;;;;;;18.97;12.13;;;10.40;1.00;;;;;;5087862;28;20285;-58
2023/04/18 09:00:53;;;;;;;17.30;11.60;;;10.70;1.00;;;;;;5087214;28;20979;-58
2023/04/18 09:03:41;;;;;;;16.43;12.53;;;10.30;1.00;;;;;;5069113;28;20279;-57
2023/04/18 09:06:15;;;;;;;15.93;11.77;;;10.50;1.00;;;;;;5083332;28;20745;-57
2023/04/18 09:08:42;;;;;;;15.97;11.73;;;10.80;1.00;;;;;;5082370;28;20194;-59
2023/04/18 09:11:24;;;;;;;16.27;12.37;;;10.80;1.00;;;;;;5081753;28;20190;-58
2023/04/18 09:13:54;;;;;;;16.00;11.87;;;10.50;1.00;;;;;;5088328;28;20933;-58
2023/04/18 09:16:22;;;;;;;15.40;13.03;;;10.50;1.00;;;;;;5077946;28;20210;-58
2023/04/18 09:19:13;;;;;;;16.30;13.13;;;10.40;1.00;;;;;;5075300;28;20205;-58
2023/04/18 09:21:46;;;;;;;18.73;14.10;;;10.10;1.00;;;;;;5083780;28;20208;-59
2023/04/18 09:24:19;;;;;;;16.40;13.30;;;10.00;1.00;;;;;;5085487;28;20642;-61
2023/04/18 09:26:48;;;;;;;17.43;13.50;;;10.10;1.00;;;;;;5080138;28;20190;-59
2023/04/18 09:29:17;;;;;;;18.50;14.33;;;10.30;1.00;;;;;;5081297;28;20199;-59
2023/04/18 09:31:53;;;;;;;17.60;14.00;;;10.20;1.00;;;;;;5071513;28;20194;-60
2023/04/18 09:34:25;;;;;;;17.17;13.53;;;10.70;1.00;;;;;;5063216;28;20213;-60
2023/04/18 09:37:06;;;;;;;20.27;14.73;;;10.60;1.00;;;;;;5065773;28;20565;-59
2023/04/18 09:39:33;;;;;;;20.50;14.30;;;10.40;1.00;;;;;;5080249;28;20198;-58
2023/04/18 09:42:01;;;;;;;20.47;14.70;;;10.50;1.00;;;;;;5079222;28;20194;-57
2023/04/18 09:44:28;;;;;;;19.33;14.40;;;10.60;1.00;;;;;;5067429;28;20194;-57
2023/04/18 09:46:55;;;;;;;20.87;15.00;;;10.80;1.00;;;;;;5083686;28;20234;-58
2023/04/18 09:49:22;;;;;;;19.37;15.03;;;10.90;1.00;;;;;;5085390;28;21260;-59
2023/04/18 09:52:01;;;;;;;18.20;13.83;;;11.00;1.00;;;;;;5066792;28;20194;-58
2023/04/18 09:54:31;;;;;;;18.00;14.63;;;11.00;1.00;;;;;;5086454;28;20210;-58
2023/04/18 09:57:00;;;;;;;19.70;14.47;;;10.90;1.00;;;;;;5088175;28;20189;-59
2023/04/18 09:59:46;;;;;;;20.63;16.27;;;10.70;1.00;;;;;;5085375;28;20197;-58
2023/04/18 10:02:21;;;;;;;20.33;15.93;;;10.60;1.00;;;;;;5079322;28;20705;-58
2023/04/18 10:04:50;;;;;;;23.97;16.90;;;10.70;1.00;;;;;;5084034;28;20600;-57
2023/04/18 10:07:17;;;;;;;19.47;15.10;;;10.70;1.00;;;;;;5084769;28;20739;-58
2023/04/18 10:09:48;;;;;;;22.97;16.57;;;10.80;1.00;;;;;;5080368;28;20293;-60
2023/04/18 10:12:16;;;;;;;22.93;17.30;;;10.90;1.00;;;;;;5076292;28;20260;-59
2023/04/18 10:14:44;;;;;;;19.07;16.20;;;10.70;1.00;;;;;;5079577;28;20232;-59
2023/04/18 10:17:12;;;;;;;22.07;16.63;;;10.90;1.00;;;;;;5080897;28;20199;-58
2023/04/18 10:19:40;;;;;;;22.13;16.60;;;10.80;1.00;;;;;;5082535;28;20229;-58
2023/04/18 10:22:07;;;;;;;21.27;16.13;;;10.80;1.00;;;;;;5085570;28;20201;-57
2023/04/18 10:24:51;;;;;;;21.13;17.47;;;10.80;1.00;;;;;;5078327;28;20251;-59
2023/04/18 10:27:48;;;;;;;22.40;17.47;;;11.00;1.00;;;;;;5080537;28;20281;-60
2023/04/18 10:30:16;;;;;;;21.10;16.80;;;11.20;1.00;;;;;;5079475;28;20650;-58
2023/04/18 10:32:45;;;;;;;21.13;16.37;;;11.20;1.00;;;;;;5066374;28;20772;-58
2023/04/18 10:35:12;;;;;;;23.37;16.80;;;11.30;1.00;;;;;;5080220;28;20656;-59
2023/04/18 10:37:58;;;;;;;22.87;16.70;;;11.40;1.00;;;;;;5064730;28;20190;-58
2023/04/18 10:40:32;;;;;;;23.27;17.90;;;11.30;1.00;;;;;;5082352;28;20214;-58
2023/04/18 10:43:00;;;;;;;21.97;16.87;;;11.30;1.00;;;;;;5082650;28;20205;-59
2023/04/18 10:45:30;;;;;;;22.33;17.17;;;11.30;1.00;;;;;;5062038;28;20274;-58
2023/04/18 10:48:28;;;;;;;21.90;16.47;;;11.50;1.00;;;;;;5081695;28;20190;-59
2023/04/18 10:51:20;;;;;;;20.03;15.17;;;11.50;1.00;;;;;;5063818;28;20691;-59
2023/04/18 10:53:51;;;;;;;21.43;16.10;;;11.30;1.00;;;;;;5044575;28;20202;-60
2023/04/18 10:56:18;;;;;;;22.70;16.33;;;11.50;1.00;;;;;;5082071;28;20263;-59
2023/04/18 10:58:50;;;;;;;22.83;17.67;;;11.40;1.00;;;;;;5050493;28;20842;-58
2023/04/18 11:01:28;;;;;;;23.37;17.03;;;11.20;1.00;;;;;;5068406;28;20194;-59
2023/04/18 11:03:59;;;;;;;19.77;15.13;;;11.20;1.00;;;;;;5079456;28;20226;-59
2023/04/18 11:06:26;;;;;;;20.37;16.10;;;11.50;1.00;;;;;;5066183;28;20239;-56
2023/04/18 11:09:10;;;;;;;19.70;15.53;;;11.50;1.00;;;;;;5083216;28;20201;-60
2023/04/18 11:11:38;;;;;;;19.13;15.60;;;11.60;1.00;;;;;;5067537;28;20273;-58
2023/04/18 11:14:05;;;;;;;18.00;14.37;;;11.70;1.00;;;;;;5052077;28;20190;-57
2023/04/18 11:16:33;;;;;;;16.40;13.97;;;11.90;1.00;;;;;;5083047;28;20236;-60
2023/04/18 11:19:00;;;;;;;17.00;13.60;;;12.20;1.00;;;;;;5078843;28;20191;-58
2023/04/18 11:21:28;;;;;;;18.77;13.07;;;12.30;1.00;;;;;;5065776;28;20625;-58
2023/04/18 11:23:56;;;;;;;18.93;13.83;;;12.40;1.00;;;;;;5065965;28;20255;-58
2023/04/18 11:26:25;;;;;;;16.23;13.93;;;12.10;1.00;;;;;;5080497;28;20598;-61
2023/04/18 11:28:56;;;;;;;17.37;13.83;;;11.90;1.00;;;;;;5083796;28;20195;-61
2023/04/18 11:31:24;;;;;;;19.87;15.93;;;12.00;1.00;;;;;;5078691;28;20243;-58
2023/04/18 11:33:51;;;;;;;18.87;14.60;;;12.50;1.00;;;;;;5072330;28;20653;-58
2023/04/18 11:36:18;;;;;;;21.23;15.53;;;12.60;1.00;;;;;;5073824;28;20721;-58
2023/04/18 11:38:45;;;;;;;20.83;14.47;;;12.20;1.00;;;;;;5063674;28;20273;-58
2023/04/18 11:41:15;;;;;;;15.87;14.17;;;11.90;1.00;;;;;;5080912;28;20195;-58
2023/04/18 11:43:43;;;;;;;18.70;15.47;;;12.00;1.00;;;;;;5062890;28;20310;-59
2023/04/18 11:46:12;;;;;;;18.63;15.67;;;12.20;1.00;;;;;;5077380;28;20293;-58
2023/04/18 11:48:41;;;;;;;18.47;14.03;;;12.30;1.00;;;;;;5077861;28;20207;-59
2023/04/18 11:51:33;;;;;;;20.17;16.17;;;12.40;1.00;;;;;;5080860;28;20226;-58
2023/04/18 11:54:00;;;;;;;21.47;16.17;;;12.20;1.00;;;;;;5062468;28;20221;-59
2023/04/18 11:56:27;;;;;;;20.13;15.03;;;12.20;1.00;;;;;;5064062;28;20244;-58
2023/04/18 11:58:55;;;;;;;18.07;15.23;;;12.50;1.00;;;;;;5082457;28;20320;-58
2023/04/18 12:01:24;;;;;;;16.97;14.23;;;13.10;1.00;;;;;;5062828;28;20199;-57
2023/04/18 12:04:06;;;;;;;19.33;15.83;;;13.30;1.00;;;;;;5055479;28;20241;-59
2023/04/18 12:06:52;;;;;;;16.17;14.23;;;13.80;1.00;;;;;;5055952;28;20276;-60
2023/04/18 12:09:23;;;;;;;16.50;13.70;;;13.80;1.00;;;;;;5024153;28;20581;-58
2023/04/18 12:12:01;;;;;;;17.27;14.43;;;14.10;1.00;;;;;;5056977;28;20248;-58
2023/04/18 12:14:29;;;;;;;14.70;11.95;;;14.50;1.00;;;;;;5060161;28;20225;-58
2023/04/18 12:16:56;;;;;;;14.80;12.97;;;14.50;1.00;;;;;;5054963;28;20219;-58
2023/04/18 12:19:28;;;;;;;15.93;13.70;;;13.50;1.00;;;;;;5056168;28;20201;-58
2023/04/18 12:21:59;;;;;;;18.97;14.67;;;13.30;1.00;;;;;;5058920;28;20279;-58
2023/04/18 12:24:27;;;;;;;17.33;14.23;;;13.60;1.00;;;;;;5057171;28;20203;-58
2023/04/18 12:26:56;;;;;;;19.17;14.83;;;13.90;1.00;;;;;;5060757;28;20183;-59
2023/04/18 12:29:28;;;;;;;18.97;14.63;;;13.70;1.00;;;;;;5057289;28;20203;-58
2023/04/18 12:31:55;;;;;;;16.95;14.55;;;14.10;1.00;;;;;;5059834;28;20194;-59
2023/04/18 12:34:23;;;;;;;17.08;15.15;;;14.40;1.00;;;;;;5045104;28;20257;-61
2023/04/18 12:36:50;;;;;;;15.93;14.23;;;14.00;1.00;;;;;;5059900;28;20262;-58
2023/04/18 12:39:16;;;;;;;19.80;14.33;;;14.20;1.00;;;;;;5054312;28;20274;-59
2023/04/18 12:41:43;;;;;;;16.02;14.43;;;14.80;1.00;;;;;;5058182;28;20187;-64
2023/04/18 12:44:11;;;;;;;16.50;14.73;;;14.60;1.00;;;;;;5056532;28;20196;-59
2023/04/18 12:46:38;;;;;;;15.82;13.55;;;14.80;1.00;;;;;;5065448;28;20209;-59
2023/04/18 12:49:05;;;;;;;16.27;14.35;;;15.20;1.00;;;;;;5059369;28;20659;-59
2023/04/18 12:51:32;;;;;;;15.00;13.27;;;15.60;1.00;;;;;;5059024;28;20218;-59
2023/04/18 12:53:59;;;;;;;15.95;14.25;;;14.70;1.00;;;;;;5056299;28;20206;-59
2023/04/18 12:56:26;;;;;;;16.83;14.30;;;14.40;1.00;;;;;;5058519;28;20353;-59
2023/04/18 12:58:53;;;;;;;14.93;13.00;;;14.40;1.00;;;;;;5057297;28;20187;-59
2023/04/18 13:01:20;;;;;;;15.90;12.90;;;14.30;1.00;;;;;;5057140;28;20813;-58